Time;durP1;ratioP1;P1;durP2;ratioP2;P2;SDS_P1;SDS_P2;PMS_P1;PMS_P2;Temp;Humidity;BMP_temperature;BMP_pressure;BME280_temperature;BME280_humidity;BME280_pressure;Samples;Min_cycle;Max_cycle;Signal;HPM_P1;HPM_P2
2022/02/26 00:01:49;;;;;;;10.47;3.30;;;15.00;52.70;;;;;;4995257;28;20512;-83
2022/02/26 00:04:17;;;;;;;8.30;3.07;;;15.00;52.80;;;;;;4997682;28;20476;-82
2022/02/26 00:06:45;;;;;;;9.00;3.37;;;15.00;52.80;;;;;;4997758;28;20453;-82
2022/02/26 00:09:13;;;;;;;6.27;3.17;;;15.00;52.80;;;;;;4998444;28;20441;-83
2022/02/26 00:11:41;;;;;;;14.80;3.60;;;15.00;52.80;;;;;;4978033;28;20450;-83
2022/02/26 00:14:09;;;;;;;6.60;3.17;;;15.00;52.70;;;;;;4978159;28;20446;-82
2022/02/26 00:16:38;;;;;;;17.70;3.53;;;15.00;52.80;;;;;;4984523;28;20536;-81
2022/02/26 00:19:08;;;;;;;10.23;3.30;;;14.90;52.70;;;;;;4997808;28;20438;-81
2022/02/26 00:21:36;;;;;;;7.47;3.10;;;14.90;52.70;;;;;;4995506;28;20501;-82
2022/02/26 00:24:04;;;;;;;7.37;3.00;;;14.90;52.80;;;;;;4997368;28;20449;-83
2022/02/26 00:26:32;;;;;;;10.10;3.77;;;14.90;52.90;;;;;;4997168;28;20488;-83
2022/02/26 00:29:00;;;;;;;10.37;3.33;;;14.90;52.90;;;;;;4997294;28;20453;-83
2022/02/26 00:31:28;;;;;;;8.60;3.30;;;14.90;52.90;;;;;;4995651;28;20495;-83
2022/02/26 00:33:56;;;;;;;14.23;3.90;;;14.80;52.80;;;;;;4996103;28;20476;-82
2022/02/26 00:36:25;;;;;;;10.00;3.80;;;14.80;53.00;;;;;;4996425;28;20476;-83
2022/02/26 00:38:54;;;;;;;9.70;3.20;;;14.80;52.90;;;;;;4995783;28;20469;-82
2022/02/26 00:41:21;;;;;;;13.13;3.50;;;14.80;52.90;;;;;;4996136;28;20477;-81
2022/02/26 00:43:49;;;;;;;14.70;4.13;;;14.80;52.80;;;;;;4996351;28;20579;-81
2022/02/26 00:46:17;;;;;;;13.13;2.83;;;14.70;52.80;;;;;;4996296;28;20463;-82
2022/02/26 00:51:34;;;;;;;12.73;4.03;;;14.70;52.80;;;;;;4997673;28;20828;-83
2022/02/26 00:54:02;;;;;;;10.13;3.30;;;14.70;52.80;;;;;;4998235;28;20495;-83
2022/02/26 00:56:30;;;;;;;7.83;3.50;;;14.70;52.80;;;;;;4997646;28;20512;-83
2022/02/26 00:58:58;;;;;;;8.63;3.40;;;14.70;52.80;;;;;;4997583;28;20438;-83
2022/02/26 01:01:26;;;;;;;10.37;3.50;;;14.70;52.80;;;;;;4997420;28;20550;-83
2022/02/26 01:03:54;;;;;;;8.00;3.57;;;14.70;52.90;;;;;;4997610;28;20457;-83
2022/02/26 01:06:22;;;;;;;10.67;3.23;;;14.70;52.90;;;;;;4997063;28;20533;-83
2022/02/26 01:08:51;;;;;;;6.03;3.33;;;14.70;53.00;;;;;;4998103;28;20449;-82
2022/02/26 01:11:19;;;;;;;8.83;3.90;;;14.70;53.00;;;;;;4995552;28;20808;-83
2022/02/26 01:13:47;;;;;;;6.60;3.20;;;14.70;53.00;;;;;;4995640;28;20465;-83
2022/02/26 01:16:15;;;;;;;7.67;3.53;;;14.60;52.90;;;;;;4997094;28;20473;-83
2022/02/26 01:18:43;;;;;;;11.80;3.23;;;14.60;53.00;;;;;;4992439;28;20469;-83
2022/02/26 01:21:11;;;;;;;8.50;3.47;;;14.60;53.10;;;;;;4997044;28;20509;-83
2022/02/26 01:23:39;;;;;;;7.77;3.47;;;14.60;52.90;;;;;;4996335;28;20473;-82
2022/02/26 01:26:08;;;;;;;9.27;3.47;;;14.60;52.80;;;;;;4994422;28;20508;-82
2022/02/26 01:28:36;;;;;;;9.33;3.20;;;14.60;53.00;;;;;;4995326;28;20429;-83
2022/02/26 01:31:04;;;;;;;6.53;2.93;;;14.60;53.00;;;;;;4995273;28;20548;-83
2022/02/26 01:33:32;;;;;;;9.17;3.83;;;14.60;53.00;;;;;;4995014;28;20477;-82
2022/02/26 01:36:00;;;;;;;11.27;3.77;;;14.50;52.90;;;;;;4995757;28;20468;-83
2022/02/26 01:38:28;;;;;;;10.67;3.30;;;14.50;53.00;;;;;;4994912;28;20445;-82
2022/02/26 01:40:56;;;;;;;6.67;3.57;;;14.50;53.00;;;;;;4995110;28;20564;-82
2022/02/26 01:43:25;;;;;;;5.50;3.20;;;14.50;53.00;;;;;;4994040;28;20533;-83
2022/02/26 01:45:53;;;;;;;7.57;3.63;;;14.50;53.00;;;;;;4995493;28;20535;-82
2022/02/26 01:48:21;;;;;;;7.27;3.50;;;14.50;53.20;;;;;;4995077;28;20489;-83
2022/02/26 01:50:49;;;;;;;7.23;3.63;;;14.50;53.10;;;;;;4994971;28;20437;-83
2022/02/26 01:53:17;;;;;;;7.53;3.57;;;14.50;53.00;;;;;;4997523;28;20487;-83
2022/02/26 01:55:45;;;;;;;9.20;3.93;;;14.50;53.10;;;;;;4998750;28;20484;-83
2022/02/26 01:58:13;;;;;;;8.73;3.40;;;14.50;53.10;;;;;;4998065;28;20460;-83
2022/02/26 02:00:42;;;;;;;7.83;3.47;;;14.40;53.00;;;;;;4999372;28;20438;-81
2022/02/26 02:03:10;;;;;;;12.07;3.73;;;14.50;53.20;;;;;;4978719;28;20464;-82
2022/02/26 02:05:39;;;;;;;10.90;3.40;;;14.40;53.20;;;;;;4988261;28;20465;-82
2022/02/26 02:08:09;;;;;;;9.53;3.40;;;14.40;53.20;;;;;;4997286;28;20457;-83
2022/02/26 02:10:39;;;;;;;5.23;3.00;;;14.40;53.20;;;;;;4998219;28;20437;-82
2022/02/26 02:13:07;;;;;;;10.40;2.93;;;14.40;53.20;;;;;;4997771;28;20925;-83
2022/02/26 02:15:36;;;;;;;10.30;3.53;;;14.40;53.30;;;;;;4998576;28;20492;-82
2022/02/26 02:18:06;;;;;;;10.97;3.83;;;14.40;53.20;;;;;;4998579;28;20489;-83
2022/02/26 02:20:34;;;;;;;10.80;3.80;;;14.40;53.20;;;;;;4998963;28;20437;-83
2022/02/26 02:23:03;;;;;;;8.90;3.27;;;14.40;53.30;;;;;;4997152;28;20504;-83
2022/02/26 02:25:33;;;;;;;9.00;3.70;;;14.50;53.40;;;;;;4998143;28;20962;-83
2022/02/26 02:28:01;;;;;;;7.73;3.97;;;14.40;53.20;;;;;;4998230;28;20473;-82
2022/02/26 02:30:29;;;;;;;7.00;3.60;;;14.40;53.30;;;;;;4997532;28;21056;-83
2022/02/26 02:32:57;;;;;;;7.80;3.23;;;14.40;53.20;;;;;;4998400;28;20532;-82
2022/02/26 02:35:26;;;;;;;7.60;3.13;;;14.40;53.20;;;;;;4995501;28;20481;-83
2022/02/26 02:37:55;;;;;;;10.07;3.17;;;14.40;53.20;;;;;;4996710;28;20464;-83
2022/02/26 02:40:24;;;;;;;8.27;3.43;;;14.40;53.20;;;;;;4997834;28;20472;-81
2022/02/26 02:42:53;;;;;;;7.57;3.50;;;14.30;53.20;;;;;;4997792;28;20485;-83
2022/02/26 02:45:20;;;;;;;7.63;3.40;;;14.30;53.70;;;;;;4999057;28;20457;-83
2022/02/26 02:47:49;;;;;;;8.07;2.97;;;14.30;53.10;;;;;;4998448;28;20929;-82
2022/02/26 02:50:17;;;;;;;12.10;3.63;;;14.30;53.10;;;;;;4998832;28;20446;-83
2022/02/26 02:52:45;;;;;;;5.20;2.90;;;14.30;53.20;;;;;;4999089;28;20456;-82
2022/02/26 02:55:14;;;;;;;7.37;3.03;;;14.20;53.20;;;;;;4999420;28;20489;-83
2022/02/26 02:57:44;;;;;;;5.27;3.13;;;14.20;53.20;;;;;;4999612;28;20437;-82
2022/02/26 03:00:13;;;;;;;9.27;3.63;;;14.20;53.10;;;;;;4998463;28;20457;-81
2022/02/26 03:02:41;;;;;;;5.03;2.50;;;14.20;53.10;;;;;;4997968;28;20472;-82
2022/02/26 03:05:09;;;;;;;7.20;3.23;;;14.20;53.20;;;;;;4999575;28;20988;-82
2022/02/26 03:07:37;;;;;;;7.37;3.60;;;14.10;53.10;;;;;;5001901;28;20476;-82
2022/02/26 03:10:06;;;;;;;7.93;3.10;;;14.20;53.20;;;;;;4999342;28;20429;-82
2022/02/26 03:12:33;;;;;;;5.90;3.30;;;14.10;53.10;;;;;;4998771;28;20464;-83
2022/02/26 03:15:03;;;;;;;8.17;3.20;;;14.10;53.20;;;;;;4998342;28;20500;-83
2022/02/26 03:17:31;;;;;;;6.07;2.63;;;14.10;53.20;;;;;;4998714;28;20445;-82
2022/02/26 03:19:59;;;;;;;8.20;3.50;;;14.10;53.30;;;;;;4997503;28;20453;-82
2022/02/26 03:22:35;;;;;;;11.43;3.60;;;14.10;53.30;;;;;;4997947;28;20476;-83
2022/02/26 03:25:04;;;;;;;7.47;3.50;;;14.10;53.20;;;;;;4998873;28;20468;-83
2022/02/26 03:27:32;;;;;;;6.70;2.93;;;14.00;53.20;;;;;;4998528;28;20544;-83
2022/02/26 03:30:00;;;;;;;9.47;3.50;;;14.10;53.30;;;;;;4998305;28;20457;-83
2022/02/26 03:32:29;;;;;;;8.43;3.27;;;14.00;53.30;;;;;;4998113;28;20441;-83
2022/02/26 03:34:57;;;;;;;8.60;3.03;;;14.00;53.20;;;;;;4997723;28;20537;-82
2022/02/26 03:37:27;;;;;;;6.23;3.17;;;14.00;53.20;;;;;;4997649;28;20445;-82
2022/02/26 03:39:56;;;;;;;11.03;3.90;;;14.00;53.10;;;;;;4997672;28;20425;-82
2022/02/26 03:42:24;;;;;;;7.83;3.00;;;14.00;53.20;;;;;;4997109;28;20497;-82
2022/02/26 03:44:52;;;;;;;9.23;3.27;;;14.00;53.20;;;;;;4996796;28;20496;-82
2022/02/26 03:47:20;;;;;;;5.37;3.03;;;14.00;53.20;;;;;;4993839;28;20458;-82
2022/02/26 03:49:49;;;;;;;9.70;3.70;;;13.90;53.10;;;;;;4997670;28;20585;-82
2022/02/26 03:52:17;;;;;;;5.33;3.37;;;13.90;53.20;;;;;;4997890;28;20461;-83
2022/02/26 03:54:45;;;;;;;10.07;4.33;;;13.90;53.20;;;;;;4997201;28;20491;-82
2022/02/26 03:57:12;;;;;;;6.73;2.90;;;13.90;53.10;;;;;;4997584;28;20529;-82
2022/02/26 03:59:41;;;;;;;9.00;3.50;;;13.90;53.10;;;;;;4997130;28;20516;-82
2022/02/26 04:02:09;;;;;;;9.30;3.50;;;13.90;53.10;;;;;;4997258;28;20470;-82
2022/02/26 04:04:37;;;;;;;8.93;3.23;;;13.90;53.20;;;;;;4997675;28;20549;-82
2022/02/26 04:07:06;;;;;;;7.57;2.90;;;13.90;53.20;;;;;;4997713;28;20481;-82
2022/02/26 04:09:34;;;;;;;6.20;3.30;;;13.80;53.10;;;;;;4998581;28;20450;-81
2022/02/26 04:12:02;;;;;;;7.27;3.70;;;13.90;53.20;;;;;;5003325;28;20472;-83
2022/02/26 04:14:30;;;;;;;8.73;3.67;;;13.80;53.00;;;;;;5002606;28;20516;-82
2022/02/26 04:16:58;;;;;;;5.77;3.20;;;13.90;53.10;;;;;;4998367;28;20437;-83
2022/02/26 04:19:26;;;;;;;7.13;3.60;;;13.80;53.00;;;;;;4998147;28;20445;-82
2022/02/26 04:21:54;;;;;;;8.90;3.23;;;13.80;53.00;;;;;;4997804;28;20441;-82
2022/02/26 04:24:25;;;;;;;7.53;3.50;;;13.80;53.00;;;;;;4997060;28;20564;-81
2022/02/26 04:26:54;;;;;;;7.60;3.10;;;13.80;53.10;;;;;;4997682;28;20477;-83
2022/02/26 04:29:22;;;;;;;6.53;3.43;;;13.80;53.10;;;;;;4997611;28;20524;-82
2022/02/26 04:31:50;;;;;;;6.17;3.40;;;13.80;53.00;;;;;;4995808;28;20535;-82
2022/02/26 04:34:18;;;;;;;4.17;2.90;;;13.80;53.00;;;;;;4997715;28;20437;-82
2022/02/26 04:36:46;;;;;;;6.50;3.03;;;13.80;53.10;;;;;;4997210;28;20531;-82
2022/02/26 04:39:14;;;;;;;6.97;3.20;;;13.70;53.00;;;;;;4996984;28;20430;-83
2022/02/26 04:41:44;;;;;;;5.47;3.00;;;13.70;52.90;;;;;;4996598;28;20469;-83
2022/02/26 04:44:12;;;;;;;7.37;3.90;;;13.80;53.60;;;;;;4996163;28;20485;-82
2022/02/26 04:46:40;;;;;;;10.70;3.40;;;13.80;53.00;;;;;;4999395;28;20535;-81
2022/02/26 04:49:08;;;;;;;7.57;3.37;;;13.80;52.90;;;;;;5000240;28;20465;-81
2022/02/26 04:51:36;;;;;;;10.30;3.90;;;13.70;52.90;;;;;;4999097;28;20920;-81
2022/02/26 04:54:04;;;;;;;11.73;3.90;;;13.70;52.90;;;;;;4999113;28;20444;-81
2022/02/26 04:56:32;;;;;;;14.23;4.00;;;13.70;52.90;;;;;;4999023;28;20500;-81
2022/02/26 04:59:01;;;;;;;8.07;3.17;;;13.70;53.00;;;;;;4995004;28;20528;-81
2022/02/26 05:01:29;;;;;;;5.90;2.50;;;13.70;53.00;;;;;;4996626;28;20477;-81
2022/02/26 05:03:59;;;;;;;10.40;3.57;;;13.70;52.80;;;;;;4996903;28;20984;-80
2022/02/26 05:06:27;;;;;;;6.83;3.43;;;13.70;52.90;;;;;;4997025;28;20501;-81
2022/02/26 05:08:55;;;;;;;7.23;3.40;;;13.70;52.70;;;;;;4997084;28;20456;-81
2022/02/26 05:11:28;;;;;;;4.93;3.20;;;13.60;52.80;;;;;;4998095;28;20475;-82
2022/02/26 05:13:55;;;;;;;5.90;3.17;;;13.60;52.90;;;;;;4997086;28;20495;-81
2022/02/26 05:16:25;;;;;;;5.40;3.13;;;13.60;52.70;;;;;;4998017;28;20453;-81
2022/02/26 05:18:53;;;;;;;7.83;3.10;;;13.60;52.90;;;;;;4997721;28;20441;-81
2022/02/26 05:21:20;;;;;;;8.30;3.10;;;13.60;52.80;;;;;;4996675;28;20971;-80
2022/02/26 05:23:48;;;;;;;6.23;3.00;;;13.60;52.90;;;;;;4996876;28;20526;-81
2022/02/26 05:26:16;;;;;;;10.23;3.30;;;13.60;52.80;;;;;;4996278;28;20468;-81
2022/02/26 05:28:44;;;;;;;8.70;3.53;;;13.50;52.70;;;;;;4998557;28;20559;-80
2022/02/26 05:31:12;;;;;;;8.27;3.27;;;13.50;52.80;;;;;;5000736;28;20441;-81
2022/02/26 05:33:41;;;;;;;8.90;3.17;;;13.50;52.70;;;;;;5000610;28;20792;-80
2022/02/26 05:36:09;;;;;;;7.00;3.33;;;13.50;52.80;;;;;;5000365;28;20453;-81
2022/02/26 05:38:37;;;;;;;5.10;3.00;;;13.50;52.80;;;;;;5000777;28;20495;-81
2022/02/26 05:41:07;;;;;;;5.80;3.43;;;13.50;52.80;;;;;;4999903;28;20471;-81
2022/02/26 05:43:35;;;;;;;6.50;3.30;;;13.50;52.50;;;;;;4999363;28;20485;-81
2022/02/26 05:46:03;;;;;;;12.03;4.30;;;13.50;52.60;;;;;;4999963;28;20533;-81
2022/02/26 05:48:31;;;;;;;6.77;3.23;;;13.40;52.60;;;;;;5000270;28;20445;-81
2022/02/26 05:51:01;;;;;;;8.87;3.47;;;13.40;52.80;;;;;;4999669;28;20476;-80
2022/02/26 05:53:29;;;;;;;8.50;3.50;;;13.40;52.60;;;;;;5000361;28;20519;-80
2022/02/26 05:55:57;;;;;;;7.90;3.43;;;13.50;52.70;;;;;;4999270;28;20453;-81
2022/02/26 05:58:25;;;;;;;4.93;3.10;;;13.40;52.80;;;;;;5001465;28;20500;-81
2022/02/26 06:00:55;;;;;;;8.87;3.80;;;13.40;52.70;;;;;;5000507;28;20456;-80
2022/02/26 06:03:23;;;;;;;9.40;3.30;;;13.30;52.60;;;;;;4999450;28;20476;-81
2022/02/26 06:05:51;;;;;;;6.93;2.90;;;13.40;52.70;;;;;;4999360;28;20464;-81
2022/02/26 06:08:21;;;;;;;8.57;3.30;;;13.40;52.80;;;;;;4999616;28;20480;-81
2022/02/26 06:10:49;;;;;;;4.03;2.83;;;13.40;52.60;;;;;;4999841;28;20460;-81
2022/02/26 06:13:19;;;;;;;5.53;2.77;;;13.40;52.60;;;;;;4999925;28;20463;-81
2022/02/26 06:15:47;;;;;;;6.97;3.10;;;13.40;52.70;;;;;;5000045;28;20450;-81
2022/02/26 06:18:15;;;;;;;6.00;2.63;;;13.40;52.70;;;;;;4999875;28;20462;-81
2022/02/26 06:20:43;;;;;;;9.23;3.03;;;13.40;52.60;;;;;;4999204;28;20503;-81
2022/02/26 06:23:10;;;;;;;7.67;3.30;;;13.40;52.50;;;;;;4999878;28;20465;-81
2022/02/26 06:25:40;;;;;;;7.20;3.13;;;13.30;52.60;;;;;;4999467;28;20493;-81
2022/02/26 06:28:07;;;;;;;8.00;3.20;;;13.40;52.60;;;;;;4999274;28;20501;-81
2022/02/26 06:30:35;;;;;;;9.10;3.30;;;13.30;52.60;;;;;;4997906;28;20481;-80
2022/02/26 06:33:04;;;;;;;9.50;3.53;;;13.30;52.60;;;;;;4998791;28;20489;-80
2022/02/26 06:35:32;;;;;;;6.90;3.17;;;13.30;52.70;;;;;;4999636;28;20540;-81
2022/02/26 06:38:00;;;;;;;5.90;2.97;;;13.30;52.70;;;;;;4999953;28;20489;-81
2022/02/26 06:40:27;;;;;;;10.07;3.20;;;13.30;52.70;;;;;;4998409;28;20605;-81
2022/02/26 06:42:57;;;;;;;7.00;3.80;;;13.30;52.70;;;;;;4999091;28;20526;-81
2022/02/26 06:45:24;;;;;;;6.33;3.23;;;13.30;52.60;;;;;;4997664;28;20575;-81
2022/02/26 06:47:52;;;;;;;10.53;3.40;;;13.40;52.50;;;;;;4997295;28;20484;-81
2022/02/26 06:50:20;;;;;;;7.50;3.07;;;13.40;52.60;;;;;;4998559;28;20430;-80
2022/02/26 06:52:48;;;;;;;7.17;3.40;;;13.40;52.70;;;;;;4998390;28;20488;-80
2022/02/26 06:55:16;;;;;;;6.37;3.27;;;13.30;52.40;;;;;;4997804;28;20485;-81
2022/02/26 06:57:46;;;;;;;11.13;3.30;;;13.40;52.60;;;;;;4997592;28;20519;-81
2022/02/26 07:00:16;;;;;;;11.20;3.93;;;13.40;52.80;;;;;;4997673;28;20536;-81
2022/02/26 07:02:44;;;;;;;6.20;2.90;;;13.40;53.10;;;;;;4998544;28;20479;-80
2022/02/26 07:05:12;;;;;;;6.17;3.00;;;13.40;52.50;;;;;;4997972;28;20481;-80
2022/02/26 07:07:40;;;;;;;5.20;3.00;;;13.30;52.70;;;;;;4998534;28;20476;-80
2022/02/26 07:10:09;;;;;;;4.07;2.83;;;13.40;52.80;;;;;;4998573;28;20464;-81
2022/02/26 07:12:37;;;;;;;9.90;3.10;;;13.40;52.80;;;;;;4998573;28;20492;-81
2022/02/26 07:15:05;;;;;;;5.33;2.80;;;13.50;52.60;;;;;;4997430;28;20449;-80
2022/02/26 07:17:35;;;;;;;7.70;3.27;;;13.50;52.70;;;;;;4997388;28;20468;-80
2022/02/26 07:20:03;;;;;;;7.10;3.20;;;13.50;52.60;;;;;;4996976;28;20433;-80
2022/02/26 07:22:30;;;;;;;5.37;3.10;;;13.50;52.70;;;;;;4997289;28;20516;-80
2022/02/26 07:24:58;;;;;;;6.50;3.07;;;13.50;52.60;;;;;;4996860;28;20580;-80
2022/02/26 07:27:26;;;;;;;6.30;2.87;;;13.60;52.70;;;;;;4996278;28;20457;-80
2022/02/26 07:29:54;;;;;;;5.83;2.80;;;13.60;52.60;;;;;;4996121;28;21028;-81
2022/02/26 07:32:22;;;;;;;6.90;3.37;;;13.60;52.70;;;;;;4997265;28;20484;-81
2022/02/26 07:34:51;;;;;;;7.43;3.10;;;13.60;52.60;;;;;;4996528;28;20450;-81
2022/02/26 07:37:23;;;;;;;7.10;3.40;;;13.70;52.90;;;;;;4997652;28;20484;-81
2022/02/26 07:39:50;;;;;;;9.07;3.27;;;13.70;52.60;;;;;;4997819;28;20433;-80
2022/02/26 07:42:18;;;;;;;7.97;3.20;;;13.80;52.70;;;;;;4997221;28;20469;-81
2022/02/26 07:44:46;;;;;;;7.20;3.10;;;13.70;52.70;;;;;;4997650;28;20469;-80
2022/02/26 07:47:15;;;;;;;8.37;3.30;;;13.80;52.80;;;;;;4996253;28;20508;-81
2022/02/26 07:49:43;;;;;;;9.00;3.60;;;13.90;52.90;;;;;;4997458;28;20445;-81
2022/02/26 07:52:27;;;;;;;9.33;3.33;;;14.00;52.80;;;;;;4997699;28;20444;-81
2022/02/26 07:54:55;;;;;;;6.27;3.20;;;14.10;52.80;;;;;;4997762;28;20496;-81
2022/02/26 07:57:23;;;;;;;5.77;2.93;;;14.10;52.90;;;;;;4997683;28;20433;-81
2022/02/26 07:59:52;;;;;;;4.93;3.00;;;14.10;52.70;;;;;;4997845;28;20473;-81
2022/02/26 08:02:20;;;;;;;5.80;3.40;;;14.20;52.80;;;;;;4998900;28;20500;-81
2022/02/26 08:04:49;;;;;;;6.13;3.10;;;14.30;52.80;;;;;;4999435;28;20465;-80
2022/02/26 08:07:17;;;;;;;6.70;3.27;;;14.30;52.90;;;;;;5000828;28;20438;-81
2022/02/26 08:09:46;;;;;;;6.93;3.70;;;14.40;52.90;;;;;;4999584;28;20438;-81
2022/02/26 08:12:14;;;;;;;7.20;3.33;;;14.40;53.10;;;;;;5003079;28;20445;-81
2022/02/26 08:14:42;;;;;;;7.10;3.13;;;14.60;53.00;;;;;;5002495;28;20465;-80
2022/02/26 08:17:10;;;;;;;6.97;3.60;;;14.70;53.20;;;;;;5001717;28;20449;-81
2022/02/26 08:19:38;;;;;;;6.33;3.00;;;14.80;53.00;;;;;;4999403;28;20445;-82
2022/02/26 08:22:06;;;;;;;5.00;2.90;;;15.10;52.80;;;;;;4997495;28;20441;-82
2022/02/26 08:24:34;;;;;;;7.90;3.13;;;15.40;52.70;;;;;;4997740;28;20496;-82
2022/02/26 08:27:04;;;;;;;7.07;3.70;;;15.60;52.10;;;;;;4997370;28;20445;-83
2022/02/26 08:29:32;;;;;;;5.10;3.30;;;15.80;51.90;;;;;;4996677;28;20527;-82
2022/02/26 08:32:01;;;;;;;9.83;3.90;;;16.00;51.80;;;;;;4997893;28;20477;-82
2022/02/26 08:34:32;;;;;;;9.37;3.40;;;16.00;52.10;;;;;;4996989;28;20488;-82
2022/02/26 08:37:00;;;;;;;4.53;3.00;;;16.00;52.80;;;;;;4997016;28;20441;-83
2022/02/26 08:39:29;;;;;;;6.60;3.90;;;16.00;53.40;;;;;;4997826;28;20504;-83
2022/02/26 08:41:58;;;;;;;5.80;3.00;;;16.00;53.90;;;;;;4998171;28;20437;-83
2022/02/26 08:44:27;;;;;;;5.33;3.17;;;16.10;54.50;;;;;;4996707;28;20492;-82
2022/02/26 08:46:55;;;;;;;6.57;3.53;;;16.30;54.70;;;;;;4997783;28;20465;-81
2022/02/26 08:49:23;;;;;;;7.87;3.20;;;16.30;55.10;;;;;;4999862;28;20453;-81
2022/02/26 08:51:51;;;;;;;6.20;3.50;;;16.60;55.30;;;;;;5003959;28;20472;-82
2022/02/26 08:54:19;;;;;;;4.83;3.10;;;16.80;55.50;;;;;;5007182;28;20453;-82
2022/02/26 08:56:47;;;;;;;5.77;3.53;;;17.00;55.50;;;;;;4997639;28;20457;-82
2022/02/26 08:59:15;;;;;;;4.53;3.30;;;17.20;55.60;;;;;;4996881;28;20457;-83
2022/02/26 09:01:44;;;;;;;5.03;3.40;;;17.30;55.60;;;;;;4997245;28;20532;-82
2022/02/26 09:04:12;;;;;;;5.93;3.40;;;17.50;56.00;;;;;;5003369;28;20452;-81
2022/02/26 09:06:40;;;;;;;5.80;3.57;;;17.70;55.90;;;;;;5004896;28;20487;-81
2022/02/26 09:09:09;;;;;;;5.13;3.13;;;17.90;55.90;;;;;;5003150;28;20441;-81
2022/02/26 09:11:37;;;;;;;5.67;3.50;;;18.00;56.20;;;;;;5002321;28;20460;-81
2022/02/26 09:14:05;;;;;;;5.97;3.80;;;18.10;56.10;;;;;;5003208;28;20461;-83
2022/02/26 09:16:33;;;;;;;6.17;3.40;;;18.40;56.10;;;;;;5001114;28;20485;-83
2022/02/26 09:19:02;;;;;;;5.53;3.33;;;18.50;56.10;;;;;;5000557;28;20437;-83
2022/02/26 09:21:30;;;;;;;6.27;3.60;;;18.80;56.10;;;;;;5001145;28;20496;-83
2022/02/26 09:23:58;;;;;;;4.23;3.20;;;19.00;56.70;;;;;;5000854;28;20444;-83
2022/02/26 09:26:25;;;;;;;6.87;3.73;;;19.20;56.00;;;;;;5000462;28;20481;-83
2022/02/26 09:28:53;;;;;;;6.90;3.93;;;19.50;56.00;;;;;;5001113;28;20516;-82
2022/02/26 09:31:21;;;;;;;5.53;3.90;;;19.60;55.90;;;;;;5006316;28;20461;-82
2022/02/26 09:33:49;;;;;;;6.60;4.00;;;19.90;55.70;;;;;;5007402;28;20552;-82
2022/02/26 09:36:18;;;;;;;7.10;3.67;;;20.10;55.50;;;;;;5008937;28;20512;-82
2022/02/26 09:38:46;;;;;;;5.53;3.50;;;20.40;55.40;;;;;;5007469;28;20462;-82
2022/02/26 09:41:17;;;;;;;6.27;3.53;;;20.60;55.30;;;;;;5008282;28;20495;-82
2022/02/26 09:43:45;;;;;;;7.63;3.40;;;20.80;55.10;;;;;;5008791;28;20469;-83
2022/02/26 09:46:13;;;;;;;6.00;3.33;;;21.00;55.00;;;;;;5011182;28;20825;-82
2022/02/26 09:48:41;;;;;;;5.63;3.50;;;21.30;54.80;;;;;;5012402;28;20601;-83
2022/02/26 09:51:09;;;;;;;6.70;3.80;;;21.50;54.60;;;;;;5011151;28;20553;-82
2022/02/26 09:53:38;;;;;;;4.03;3.50;;;21.70;54.70;;;;;;5011962;28;20448;-83
2022/02/26 09:56:06;;;;;;;4.00;3.10;;;21.90;54.50;;;;;;5011667;28;20465;-83
2022/02/26 09:58:34;;;;;;;7.30;3.80;;;22.20;54.40;;;;;;5001626;28;20481;-84
2022/02/26 10:01:03;;;;;;;4.27;3.60;;;22.40;54.30;;;;;;5000031;28;20477;-83
2022/02/26 10:03:33;;;;;;;3.70;2.97;;;22.50;54.20;;;;;;5001072;28;20520;-84
2022/02/26 10:06:08;;;;;;;5.70;3.53;;;22.70;54.20;;;;;;5000906;28;20939;-84
2022/02/26 10:08:39;;;;;;;4.60;3.77;;;22.90;54.10;;;;;;5001061;28;20448;-84
2022/02/26 10:11:07;;;;;;;5.33;3.50;;;23.20;54.00;;;;;;5001448;28;20420;-84
2022/02/26 10:13:42;;;;;;;3.97;3.20;;;23.50;53.80;;;;;;5000636;28;20473;-84
2022/02/26 10:16:10;;;;;;;4.50;3.17;;;23.80;53.50;;;;;;4992221;28;20561;-84
2022/02/26 10:18:38;;;;;;;4.27;2.93;;;23.90;53.10;;;;;;5000653;28;20525;-84
2022/02/26 10:21:06;;;;;;;7.63;3.47;;;24.00;53.00;;;;;;5000991;28;20476;-84
2022/02/26 10:23:34;;;;;;;6.27;3.87;;;24.00;53.10;;;;;;5002330;28;20445;-85
2022/02/26 10:26:11;;;;;;;3.60;3.30;;;24.10;53.10;;;;;;5002296;28;20501;-85
2022/02/26 10:28:42;;;;;;;5.60;3.60;;;24.40;52.90;;;;;;5002042;28;20500;-85
2022/02/26 10:31:11;;;;;;;7.00;3.30;;;24.30;52.50;;;;;;5001248;28;20449;-85
2022/02/26 10:33:39;;;;;;;5.57;3.53;;;24.30;52.40;;;;;;5000488;28;20483;-84
2022/02/26 10:36:08;;;;;;;4.00;3.53;;;24.20;52.60;;;;;;5000124;28;20462;-84
2022/02/26 10:38:37;;;;;;;5.97;3.23;;;24.20;52.90;;;;;;5000499;28;20452;-84
2022/02/26 10:41:07;;;;;;;4.67;3.40;;;24.30;52.90;;;;;;5000151;28;20424;-84
2022/02/26 10:43:46;;;;;;;5.53;3.40;;;24.60;52.80;;;;;;4999524;28;20469;-84
2022/02/26 10:46:26;;;;;;;4.77;3.20;;;25.00;52.50;;;;;;4979386;28;20901;-84
2022/02/26 10:48:56;;;;;;;4.10;3.27;;;25.20;52.30;;;;;;4987951;28;20442;-82
2022/02/26 10:51:25;;;;;;;3.93;3.37;;;25.50;51.90;;;;;;4992542;28;20446;-83
2022/02/26 10:53:53;;;;;;;4.73;3.03;;;25.80;52.10;;;;;;4991931;28;20469;-82
2022/02/26 10:56:29;;;;;;;6.27;3.40;;;26.10;51.10;;;;;;4992051;28;20915;-83
2022/02/26 10:58:59;;;;;;;4.47;3.10;;;26.40;50.90;;;;;;4991392;28;20456;-83
2022/02/26 11:01:27;;;;;;;5.43;3.67;;;26.70;50.50;;;;;;4991594;28;20513;-84
2022/02/26 11:03:56;;;;;;;4.27;3.33;;;27.10;50.00;;;;;;4991837;28;20476;-84
2022/02/26 11:06:24;;;;;;;3.60;2.90;;;27.40;49.70;;;;;;4991406;28;20520;-83
2022/02/26 11:08:52;;;;;;;3.30;3.00;;;27.60;49.40;;;;;;4991980;28;20450;-83
2022/02/26 11:11:22;;;;;;;3.13;2.83;;;27.70;49.10;;;;;;5007648;28;20453;-83
2022/02/26 11:13:52;;;;;;;3.40;2.80;;;27.60;49.00;;;;;;5011276;28;20477;-83
2022/02/26 11:16:22;;;;;;;4.23;3.33;;;27.40;49.00;;;;;;5011684;28;21029;-83
2022/02/26 11:18:52;;;;;;;4.33;3.33;;;27.40;49.20;;;;;;5011692;28;20428;-83
2022/02/26 11:21:24;;;;;;;5.00;3.40;;;27.40;49.10;;;;;;5011259;28;20446;-83
2022/02/26 11:23:52;;;;;;;4.83;3.30;;;27.10;49.00;;;;;;5011075;28;20480;-83
2022/02/26 11:26:22;;;;;;;7.90;3.70;;;27.00;49.20;;;;;;5009058;28;20487;-83
2022/02/26 11:28:57;;;;;;;4.90;3.13;;;27.10;49.20;;;;;;5011010;28;20491;-84
2022/02/26 11:31:27;;;;;;;4.07;2.77;;;27.60;48.70;;;;;;5010811;28;20416;-83
2022/02/26 11:33:55;;;;;;;4.37;2.83;;;28.80;47.10;;;;;;5010972;28;20412;-83
2022/02/26 11:36:23;;;;;;;3.83;2.60;;;29.80;45.20;;;;;;5011445;28;20486;-84
2022/02/26 11:38:56;;;;;;;3.17;2.87;;;30.80;43.70;;;;;;5011319;28;20470;-83
2022/02/26 11:41:31;;;;;;;3.80;2.87;;;31.40;42.60;;;;;;5011069;28;20429;-83
2022/02/26 11:44:00;;;;;;;3.20;2.73;;;32.20;41.50;;;;;;5011451;28;20488;-84
2022/02/26 11:46:33;;;;;;;3.37;2.97;;;32.80;40.10;;;;;;5008095;28;20537;-83
2022/02/26 11:49:13;;;;;;;2.93;2.83;;;33.20;39.20;;;;;;5010635;28;20484;-84
2022/02/26 11:51:44;;;;;;;3.33;2.90;;;33.60;38.60;;;;;;5011293;28;20468;-84
2022/02/26 11:54:14;;;;;;;2.70;2.50;;;34.50;37.40;;;;;;5010893;28;20441;-84
2022/02/26 11:56:43;;;;;;;3.00;2.47;;;35.00;36.50;;;;;;5011058;28;20452;-85
2022/02/26 11:59:11;;;;;;;3.30;2.53;;;35.80;35.00;;;;;;5011650;28;20473;-84
2022/02/26 12:14:58;;;;;;;2.97;2.63;;;36.40;34.70;;;;;;5103742;27;20552;-81
2022/02/26 12:17:26;;;;;;;2.40;2.20;;;39.30;29.80;;;;;;5069393;28;20449;-82
2022/02/26 12:19:54;;;;;;;4.43;2.20;;;39.40;29.40;;;;;;5069230;28;20434;-82
2022/02/26 12:22:23;;;;;;;2.40;2.20;;;39.60;29.40;;;;;;5069131;28;20495;-82
2022/02/26 12:24:52;;;;;;;2.00;1.90;;;40.00;28.90;;;;;;5068711;28;20481;-82
2022/02/26 12:27:31;;;;;;;2.37;2.17;;;40.10;28.60;;;;;;5068938;28;20529;-82
2022/02/26 12:30:09;;;;;;;2.87;2.20;;;39.90;28.70;;;;;;5090875;28;20449;-83
2022/02/26 12:32:49;;;;;;;2.30;2.10;;;40.00;28.60;;;;;;5099837;28;20433;-82
2022/02/26 12:35:18;;;;;;;1.67;1.60;;;40.10;28.50;;;;;;5087394;28;20453;-83
2022/02/26 12:37:46;;;;;;;2.30;1.90;;;40.20;28.30;;;;;;5087697;28;20430;-83
2022/02/26 12:40:20;;;;;;;2.47;2.10;;;40.40;28.20;;;;;;5087540;28;20755;-84
2022/02/26 12:42:49;;;;;;;2.13;1.93;;;40.70;27.80;;;;;;5088075;28;20492;-82
2022/02/26 12:45:19;;;;;;;2.27;2.07;;;40.80;27.80;;;;;;5087764;28;20488;-82
2022/02/26 12:47:47;;;;;;;1.90;1.80;;;41.10;27.50;;;;;;5087932;28;20456;-82
2022/02/26 12:50:18;;;;;;;1.90;1.80;;;41.10;27.30;;;;;;5087841;28;20445;-82
2022/02/26 12:52:46;;;;;;;2.17;1.97;;;41.60;27.20;;;;;;5087234;28;20442;-82
2022/02/26 12:55:15;;;;;;;2.00;1.80;;;41.60;26.90;;;;;;5087515;28;20453;-83
2022/02/26 12:57:44;;;;;;;1.83;1.73;;;41.60;26.90;;;;;;5087154;28;20472;-83
2022/02/26 13:00:14;;;;;;;2.20;2.10;;;41.60;26.80;;;;;;5094498;28;20445;-85
2022/02/26 13:02:52;;;;;;;1.70;1.60;;;41.80;26.80;;;;;;5096204;28;20483;-83
2022/02/26 13:05:24;;;;;;;2.23;2.13;;;41.80;26.60;;;;;;5086946;28;20453;-85
2022/02/26 13:08:01;;;;;;;3.33;1.70;;;41.90;26.50;;;;;;5087457;28;20445;-84
2022/02/26 13:10:34;;;;;;;1.80;1.70;;;42.10;26.60;;;;;;5087363;28;20441;-84